createdAt,value
2018-09-19T00:00:47.358Z,9.13
2018-09-19T00:03:16.616Z,12.93
2018-09-19T00:05:45.550Z,16.10
2018-09-19T00:08:16.608Z,11.60
2018-09-19T00:10:45.714Z,14.80
2018-09-19T00:13:15.334Z,12.60
2018-09-19T00:15:46.802Z,12.63
2018-09-19T00:18:16.225Z,13.00
2018-09-19T00:20:45.288Z,11.80
2018-09-19T00:23:15.072Z,11.97
2018-09-19T00:25:45.484Z,11.83
2018-09-19T00:28:15.294Z,14.43
2018-09-19T00:30:44.942Z,8.80
2018-09-19T00:33:15.168Z,14.13
2018-09-19T00:35:45.594Z,9.67
2018-09-19T00:38:14.613Z,12.40
2018-09-19T00:40:46.448Z,14.17
2018-09-19T00:43:15.932Z,10.07
2018-09-19T00:45:45.730Z,13.07
2018-09-19T00:48:25.039Z,13.63
2018-09-19T00:50:55.895Z,15.40
2018-09-19T00:53:25.538Z,10.90
2018-09-19T00:55:55.619Z,13.77
2018-09-19T00:58:25.945Z,14.83
2018-09-19T01:00:55.458Z,15.37
2018-09-19T01:03:26.546Z,20.47
2018-09-19T01:05:55.337Z,17.53
2018-09-19T01:08:24.677Z,12.30
2018-09-19T01:10:55.758Z,14.40
2018-09-19T01:13:26.022Z,10.27
2018-09-19T01:15:59.652Z,13.03
2018-09-19T01:18:32.706Z,17.07
2018-09-19T01:21:02.045Z,11.03
2018-09-19T01:23:32.013Z,17.63
2018-09-19T01:26:04.277Z,16.40
2018-09-19T01:28:35.931Z,16.20
2018-09-19T01:31:05.029Z,10.63
2018-09-19T01:33:35.277Z,14.43
2018-09-19T01:36:06.500Z,16.17
2018-09-19T01:38:39.120Z,12.93
2018-09-19T01:41:08.814Z,14.93
2018-09-19T01:43:38.548Z,15.63
2018-09-19T01:46:07.552Z,13.37
2018-09-19T01:48:38.652Z,13.70
2018-09-19T01:51:08.539Z,13.57
2018-09-19T01:53:37.294Z,13.87
2018-09-19T01:56:06.843Z,13.40
2018-09-19T01:58:37.406Z,17.23
2018-09-19T02:01:08.258Z,16.80
2018-09-19T02:03:38.616Z,11.50
2018-09-19T02:06:08.964Z,14.67
2018-09-19T02:08:42.750Z,12.50
2018-09-19T02:11:12.842Z,16.40
2018-09-19T02:13:46.529Z,8.97
2018-09-19T02:16:16.183Z,18.80
2018-09-19T02:18:48.538Z,16.43
2018-09-19T02:21:18.883Z,13.53
2018-09-19T02:23:47.872Z,12.30
2018-09-19T02:26:17.623Z,13.60
2018-09-19T02:31:22.231Z,14.23
2018-09-19T02:33:52.189Z,11.90
2018-09-19T02:36:28.282Z,13.47
2018-09-19T02:38:59.566Z,17.00
2018-09-19T02:41:29.241Z,12.00
2018-09-19T02:44:00.086Z,13.60
2018-09-19T02:46:30.874Z,14.80
2018-09-19T02:49:00.085Z,12.10
2018-09-19T02:51:30.108Z,9.60
2018-09-19T02:54:00.805Z,9.87
2018-09-19T02:56:30.247Z,16.33
2018-09-19T02:59:00.093Z,13.30
2018-09-19T03:04:08.511Z,12.33
2018-09-19T03:06:39.978Z,15.43
2018-09-19T03:09:10.714Z,15.60
2018-09-19T03:11:40.745Z,14.27
2018-09-19T03:14:10.800Z,13.07
2018-09-19T03:16:41.270Z,15.50
2018-09-19T03:19:11.006Z,12.80
2018-09-19T03:21:43.583Z,17.30
2018-09-19T03:24:14.578Z,16.20
2018-09-19T03:26:44.406Z,15.90
2018-09-19T03:29:13.770Z,21.10
2018-09-19T03:31:48.521Z,20.00
2018-09-19T03:34:19.502Z,19.80
2018-09-19T03:36:49.256Z,12.57
2018-09-19T03:39:21.519Z,17.13
2018-09-19T03:41:54.123Z,20.53
2018-09-19T03:44:24.558Z,12.77
2018-09-19T03:46:54.415Z,19.87
2018-09-19T03:49:25.103Z,13.50
2018-09-19T03:51:58.844Z,14.23
2018-09-19T03:54:30.119Z,15.93
2018-09-19T03:57:01.283Z,15.67
2018-09-19T03:59:33.183Z,16.90
2018-09-19T04:02:05.662Z,18.00
2018-09-19T04:04:39.261Z,16.80
2018-09-19T04:07:12.531Z,20.17
2018-09-19T04:09:43.011Z,22.27
2018-09-19T04:12:15.797Z,20.00
2018-09-19T04:14:47.528Z,19.33
2018-09-19T04:17:16.747Z,18.53
2018-09-19T04:19:47.674Z,16.97
2018-09-19T04:22:19.300Z,20.33
2018-09-19T04:24:49.747Z,19.80
2018-09-19T04:27:21.040Z,22.67
2018-09-19T04:29:52.052Z,20.90
2018-09-19T04:32:22.895Z,20.10
2018-09-19T04:34:55.051Z,16.40
2018-09-19T04:37:24.716Z,22.10
2018-09-19T04:40:01.142Z,18.90
2018-09-19T04:42:32.315Z,23.07
2018-09-19T04:45:06.024Z,19.60
2018-09-19T04:47:35.625Z,24.40
2018-09-19T04:50:06.379Z,19.90
2018-09-19T04:52:46.719Z,22.90
2018-09-19T04:57:48.683Z,23.13
2018-09-19T05:00:19.636Z,27.03
2018-09-19T05:02:48.786Z,27.87
2018-09-19T05:05:18.173Z,27.20
2018-09-19T05:07:50.942Z,26.30
2018-09-19T05:10:20.214Z,25.33
2018-09-19T05:12:50.051Z,22.13
2018-09-19T05:15:19.890Z,25.10
2018-09-19T05:17:48.908Z,16.33
2018-09-19T05:20:18.829Z,29.50
2018-09-19T05:22:47.575Z,27.13
2018-09-19T05:25:16.381Z,21.27
2018-09-19T05:27:45.108Z,21.97
2018-09-19T05:30:13.796Z,25.50
2018-09-19T05:32:42.565Z,22.60
2018-09-19T05:35:11.399Z,24.43
2018-09-19T05:37:40.116Z,24.37
2018-09-19T05:40:09.173Z,25.17
2018-09-19T05:42:38.188Z,21.60
2018-09-19T05:45:06.980Z,26.97
2018-09-19T05:47:35.878Z,26.17
2018-09-19T05:50:04.774Z,24.93
2018-09-19T05:52:33.677Z,28.10
2018-09-19T05:55:02.520Z,24.33
2018-09-19T05:57:31.226Z,25.77
2018-09-19T05:59:59.947Z,22.40
2018-09-19T06:02:29.002Z,25.70
2018-09-19T06:04:57.907Z,24.23
2018-09-19T06:07:26.655Z,20.00
2018-09-19T06:09:55.331Z,20.60
2018-09-19T06:12:24.066Z,22.13
2018-09-19T06:14:52.867Z,21.70
2018-09-19T06:17:21.822Z,23.80
2018-09-19T06:19:50.710Z,24.93
2018-09-19T06:22:20.513Z,29.43
2018-09-19T06:24:49.375Z,21.07
2018-09-19T06:27:18.133Z,21.77
2018-09-19T06:29:46.798Z,22.77
2018-09-19T06:32:15.939Z,19.30
2018-09-19T06:34:44.878Z,22.83
2018-09-19T06:37:13.584Z,33.13
2018-09-19T06:39:42.348Z,22.87
2018-09-19T06:42:11.096Z,22.70
2018-09-19T06:44:40.241Z,21.40
2018-09-19T06:47:08.984Z,27.40
2018-09-19T06:49:37.967Z,22.53
2018-09-19T06:52:06.919Z,22.67
2018-09-19T06:54:35.751Z,25.70
2018-09-19T06:57:04.514Z,23.67
2018-09-19T06:59:34.330Z,23.30
2018-09-19T07:02:03.009Z,24.23
2018-09-19T07:04:31.726Z,20.60
2018-09-19T07:07:00.631Z,19.27
2018-09-19T07:09:29.544Z,17.70
2018-09-19T07:11:58.168Z,20.60
2018-09-19T07:14:26.907Z,17.97
2018-09-19T07:16:56.583Z,18.10
2018-09-19T07:19:25.277Z,16.57
2018-09-19T07:21:53.971Z,17.53
2018-09-19T07:24:22.736Z,19.00
2018-09-19T07:26:51.503Z,18.67
2018-09-19T07:29:20.257Z,22.83
2018-09-19T07:31:48.918Z,19.23
2018-09-19T07:34:17.901Z,20.57
2018-09-19T07:36:46.975Z,22.20
2018-09-19T07:39:15.904Z,18.83
2018-09-19T07:41:44.880Z,19.30
2018-09-19T07:44:13.759Z,18.53
2018-09-19T07:46:42.881Z,15.50
2018-09-19T07:49:11.882Z,21.33
2018-09-19T07:51:40.657Z,14.73
2018-09-19T07:54:09.314Z,19.17
2018-09-19T07:56:38.420Z,15.00
2018-09-19T07:59:07.508Z,14.90
2018-09-19T08:01:36.299Z,17.00
2018-09-19T08:04:05.182Z,18.30
2018-09-19T08:06:33.878Z,17.50
2018-09-19T08:09:02.800Z,13.93
2018-09-19T08:11:32.367Z,16.33
2018-09-19T08:14:01.272Z,18.00
2018-09-19T08:16:30.037Z,14.07
2018-09-19T08:18:59.314Z,15.10
2018-09-19T08:21:28.062Z,16.03
2018-09-19T08:23:56.821Z,13.57
2018-09-19T08:26:25.675Z,15.50
2018-09-19T08:28:54.615Z,14.30
2018-09-19T08:31:23.340Z,15.83
2018-09-19T08:33:52.063Z,16.67
2018-09-19T08:36:20.870Z,15.30
2018-09-19T08:38:50.058Z,13.43
2018-09-19T08:41:19.026Z,16.00
2018-09-19T08:43:47.996Z,19.60
2018-09-19T08:46:16.786Z,15.70
2018-09-19T08:48:45.592Z,16.90
2018-09-19T08:51:14.643Z,10.87
2018-09-19T08:53:43.587Z,20.47
2018-09-19T08:56:12.457Z,16.67
2018-09-19T08:58:41.386Z,15.90
2018-09-19T09:01:10.277Z,16.03
2018-09-19T09:03:39.725Z,15.43
2018-09-19T09:06:08.709Z,14.90
2018-09-19T09:08:37.449Z,13.83
2018-09-19T09:11:06.386Z,10.00
2018-09-19T09:13:35.574Z,13.83
2018-09-19T09:16:04.504Z,13.10
2018-09-19T09:18:33.172Z,14.13
2018-09-19T09:21:02.053Z,15.80
2018-09-19T09:23:30.919Z,13.73
2018-09-19T09:26:00.083Z,13.07
2018-09-19T09:28:28.817Z,12.27
2018-09-19T09:30:58.561Z,16.63
2018-09-19T09:33:27.449Z,11.30
2018-09-19T09:35:56.188Z,16.13
2018-09-19T09:38:25.370Z,14.27
2018-09-19T09:40:54.301Z,14.10
2018-09-19T09:43:23.089Z,9.70
2018-09-19T09:45:52.052Z,10.30
2018-09-19T09:48:21.125Z,12.20
2018-09-19T09:50:50.029Z,12.67
2018-09-19T09:53:18.877Z,8.90
2018-09-19T09:55:47.810Z,7.90
2018-09-19T09:58:16.608Z,10.23
2018-09-19T10:00:45.398Z,12.10
2018-09-19T10:03:14.263Z,9.40
2018-09-19T10:05:42.989Z,8.80
2018-09-19T10:08:11.937Z,11.63
2018-09-19T10:10:40.713Z,14.60
2018-09-19T10:13:09.558Z,13.57
2018-09-19T10:15:38.381Z,11.97
2018-09-19T10:18:07.611Z,14.63
2018-09-19T10:20:36.465Z,8.30
2018-09-19T10:23:05.220Z,11.53
2018-09-19T10:25:34.124Z,11.97
2018-09-19T10:28:02.774Z,12.97
2018-09-19T10:30:31.748Z,11.40
2018-09-19T10:33:01.480Z,10.17
2018-09-19T10:35:32.775Z,11.37
2018-09-19T10:38:01.402Z,14.43
2018-09-19T10:40:30.582Z,10.93
2018-09-19T10:42:59.352Z,11.50
2018-09-19T10:45:28.083Z,8.57
2018-09-19T10:47:56.903Z,10.37
2018-09-19T10:50:25.923Z,11.97
2018-09-19T10:52:55.898Z,9.10
2018-09-19T10:55:24.663Z,12.20
2018-09-19T10:57:53.647Z,9.43
2018-09-19T11:00:22.279Z,9.90
2018-09-19T11:02:51.410Z,11.27
2018-09-19T11:05:20.267Z,8.17
2018-09-19T11:07:48.981Z,10.33
2018-09-19T11:10:17.915Z,10.93
2018-09-19T11:12:47.438Z,7.97
2018-09-19T11:15:16.394Z,10.53
2018-09-19T11:17:45.351Z,9.70
2018-09-19T11:20:14.088Z,8.30
2018-09-19T11:22:43.141Z,10.30
2018-09-19T11:25:12.411Z,11.07
2018-09-19T11:27:41.135Z,9.90
2018-09-19T11:30:09.999Z,8.20
2018-09-19T11:32:38.989Z,7.20
2018-09-19T11:35:07.925Z,9.70
2018-09-19T11:37:36.798Z,8.13
2018-09-19T11:42:44.461Z,9.40
2018-09-19T11:45:13.209Z,7.87
2018-09-19T11:47:44.147Z,9.43
2018-09-19T11:50:13.153Z,7.90
2018-09-19T11:52:42.886Z,7.57
2018-09-19T11:55:11.647Z,8.60
2018-09-19T11:57:40.454Z,9.77
2018-09-19T12:00:10.070Z,10.87
2018-09-19T12:02:45.611Z,10.13
2018-09-19T12:05:14.471Z,13.67
2018-09-19T12:07:43.764Z,9.87
2018-09-19T12:10:12.632Z,10.13
2018-09-19T12:12:41.290Z,8.93
2018-09-19T12:15:10.071Z,7.20
2018-09-19T12:17:39.331Z,7.67
2018-09-19T12:20:08.131Z,11.43
2018-09-19T12:22:37.144Z,10.33
2018-09-19T12:25:06.125Z,9.53
2018-09-19T12:27:35.223Z,11.63
2018-09-19T12:30:04.248Z,8.40
2018-09-19T12:32:33.156Z,8.47
2018-09-19T12:35:02.424Z,11.40
2018-09-19T12:37:31.260Z,7.80
2018-09-19T12:39:59.981Z,8.87
2018-09-19T12:42:28.696Z,9.07
2018-09-19T12:44:57.787Z,7.90
2018-09-19T12:47:26.500Z,10.87
2018-09-19T12:49:55.399Z,7.27
2018-09-19T12:52:24.322Z,7.93
2018-09-19T12:54:53.077Z,7.50
2018-09-19T12:57:21.888Z,7.23
2018-09-19T12:59:50.764Z,10.63
2018-09-19T13:02:19.437Z,9.30
2018-09-19T13:04:48.197Z,8.13
2018-09-19T13:07:16.919Z,10.13
2018-09-19T13:09:45.827Z,9.60
2018-09-19T13:12:14.923Z,8.10
2018-09-19T13:14:43.761Z,9.13
2018-09-19T13:17:12.617Z,6.93
2018-09-19T13:19:41.414Z,10.47
2018-09-19T13:22:10.249Z,7.07
2018-09-19T13:24:39.084Z,7.83
2018-09-19T13:27:08.225Z,7.00
2018-09-19T13:29:37.134Z,8.50
2018-09-19T13:32:05.847Z,9.70
2018-09-19T13:34:34.939Z,6.90
2018-09-19T13:37:04.430Z,8.00
2018-09-19T13:39:33.303Z,8.83
2018-09-19T13:42:02.653Z,7.90
2018-09-19T13:44:31.363Z,6.63
2018-09-19T13:47:00.831Z,7.03
2018-09-19T13:49:34.576Z,8.30
2018-09-19T13:52:04.263Z,7.63
2018-09-19T13:54:32.997Z,9.00
2018-09-19T13:57:01.785Z,11.67
2018-09-19T13:59:30.770Z,8.60
2018-09-19T14:01:59.581Z,10.40
2018-09-19T14:04:28.466Z,8.07
2018-09-19T14:06:57.240Z,7.77
2018-09-19T14:09:25.923Z,8.13
2018-09-19T14:11:54.754Z,9.13
2018-09-19T14:14:24.204Z,8.00
2018-09-19T14:16:53.050Z,8.03
2018-09-19T14:19:22.001Z,7.10
2018-09-19T14:21:51.398Z,6.33
2018-09-19T14:24:20.967Z,7.70
2018-09-19T14:26:50.606Z,11.00
2018-09-19T14:29:19.525Z,10.83
2018-09-19T14:31:48.271Z,8.50
2018-09-19T14:34:17.264Z,8.43
2018-09-19T14:36:46.845Z,9.73
2018-09-19T14:39:16.589Z,11.90
2018-09-19T14:41:46.722Z,6.90
2018-09-19T14:44:15.636Z,11.03
2018-09-19T14:46:45.125Z,7.03
2018-09-19T14:49:13.904Z,9.53
2018-09-19T14:51:42.757Z,8.13
2018-09-19T14:54:11.483Z,8.00
2018-09-19T14:56:40.716Z,7.33
2018-09-19T14:59:09.595Z,8.13
2018-09-19T15:01:38.399Z,9.03
2018-09-19T15:04:07.677Z,7.93
2018-09-19T15:06:36.508Z,7.87
2018-09-19T15:09:08.599Z,8.73
2018-09-19T15:11:37.596Z,6.67
2018-09-19T15:14:06.505Z,9.40
2018-09-19T15:16:35.260Z,11.30
2018-09-19T15:19:04.026Z,6.97
2018-09-19T15:21:33.720Z,7.30
2018-09-19T15:24:03.092Z,7.63
2018-09-19T15:26:32.563Z,9.00
2018-09-19T15:29:01.480Z,12.30
2018-09-19T15:31:30.438Z,7.30
2018-09-19T15:33:59.451Z,7.23
2018-09-19T15:39:02.216Z,8.53
2018-09-19T15:41:33.340Z,10.77
2018-09-19T15:44:02.120Z,9.07
2018-09-19T15:46:31.692Z,6.67
2018-09-19T15:49:00.484Z,7.90
2018-09-19T15:51:29.377Z,11.90
2018-09-19T15:53:58.691Z,9.83
2018-09-19T15:56:29.329Z,8.23
2018-09-19T15:58:58.151Z,6.13
2018-09-19T16:01:26.807Z,8.17
2018-09-19T16:03:56.219Z,8.30
2018-09-19T16:06:26.468Z,10.20
2018-09-19T16:08:55.225Z,9.17
2018-09-19T16:11:24.073Z,8.70
2018-09-19T16:13:53.116Z,10.47
2018-09-19T16:16:21.921Z,10.97
2018-09-19T16:18:50.724Z,8.37
2018-09-19T16:21:19.590Z,11.43
2018-09-19T16:23:48.924Z,9.97
2018-09-19T16:26:18.815Z,8.60
2018-09-19T16:28:47.782Z,8.07
2018-09-19T16:31:17.443Z,8.07
2018-09-19T16:33:46.346Z,13.70
2018-09-19T16:36:15.941Z,9.40
2018-09-19T16:38:44.802Z,6.97
2018-09-19T16:41:14.638Z,10.17
2018-09-19T16:43:43.519Z,8.33
2018-09-19T16:46:12.254Z,8.30
2018-09-19T16:48:41.108Z,9.37
2018-09-19T16:51:09.884Z,9.73
2018-09-19T16:53:38.889Z,7.07
2018-09-19T16:56:07.780Z,9.80
2018-09-19T16:58:37.185Z,8.50
2018-09-19T17:01:06.097Z,7.00
2018-09-19T17:03:34.948Z,8.80
2018-09-19T17:06:04.138Z,8.90
2018-09-19T17:08:33.147Z,7.67
2018-09-19T17:11:01.978Z,10.73
2018-09-19T17:13:31.620Z,7.30
2018-09-19T17:16:00.450Z,5.37
2018-09-19T17:18:30.279Z,8.63
2018-09-19T17:20:59.292Z,9.87
2018-09-19T17:23:28.789Z,6.80
2018-09-19T17:25:57.549Z,10.93
2018-09-19T17:28:26.396Z,7.77
2018-09-19T17:30:55.263Z,6.90
2018-09-19T17:33:24.058Z,7.77
2018-09-19T17:35:53.451Z,9.50
2018-09-19T17:38:23.466Z,7.53
2018-09-19T17:40:53.920Z,7.80
2018-09-19T17:43:22.929Z,7.07
2018-09-19T17:45:51.994Z,9.63
2018-09-19T17:48:21.668Z,5.90
2018-09-19T17:50:50.556Z,8.30
2018-09-19T17:53:19.453Z,9.77
2018-09-19T17:55:50.224Z,4.73
2018-09-19T17:58:19.383Z,7.10
2018-09-19T18:00:49.674Z,5.07
2018-09-19T18:03:18.931Z,9.73
2018-09-19T18:05:48.708Z,9.50
2018-09-19T18:08:19.155Z,7.53
2018-09-19T18:10:48.603Z,7.27
2018-09-19T18:13:17.496Z,8.60
2018-09-19T18:15:47.024Z,6.33
2018-09-19T18:18:17.859Z,7.23
2018-09-19T18:20:48.473Z,8.83
2018-09-19T18:23:18.497Z,6.57
2018-09-19T18:25:48.347Z,9.53
2018-09-19T18:30:52.247Z,7.73
2018-09-19T18:33:21.341Z,6.10
2018-09-19T18:35:50.191Z,7.73
2018-09-19T18:38:19.370Z,9.57
2018-09-19T18:40:49.619Z,8.30
2018-09-19T18:43:20.178Z,9.17
2018-09-19T18:45:49.373Z,8.60
2018-09-19T18:48:19.136Z,7.30
2018-09-19T18:50:48.087Z,6.73
2018-09-19T18:53:16.986Z,7.57
2018-09-19T18:55:47.685Z,7.63
2018-09-19T18:58:17.420Z,11.33
2018-09-19T19:00:47.592Z,8.20
2018-09-19T19:03:17.628Z,9.20
2018-09-19T19:05:47.704Z,6.83
2018-09-19T19:08:16.369Z,7.37
2018-09-19T19:10:46.175Z,9.50
2018-09-19T19:13:15.685Z,8.77
2018-09-19T19:15:45.363Z,7.83
2018-09-19T19:18:15.183Z,9.37
2018-09-19T19:20:46.274Z,8.10
2018-09-19T19:23:15.114Z,8.03
2018-09-19T19:25:44.072Z,10.97
2018-09-19T19:28:14.078Z,9.93
2018-09-19T19:30:44.580Z,9.73
2018-09-19T19:33:13.508Z,7.03
2018-09-19T19:35:42.554Z,9.67
2018-09-19T19:38:11.568Z,11.73
2018-09-19T19:40:40.808Z,8.30
2018-09-19T19:43:10.606Z,9.10
2018-09-19T19:45:39.580Z,13.90
2018-09-19T19:48:08.668Z,10.07
2018-09-19T19:50:38.196Z,8.67
2018-09-19T19:53:07.183Z,7.30
2018-09-19T19:55:36.005Z,7.33
2018-09-19T19:58:04.934Z,10.63
2018-09-19T20:00:35.306Z,7.60
2018-09-19T20:03:05.552Z,10.00
2018-09-19T20:05:34.724Z,9.13
2018-09-19T20:08:04.514Z,6.13
2018-09-19T20:10:33.485Z,9.70
2018-09-19T20:13:02.389Z,11.70
2018-09-19T20:15:32.364Z,8.17
2018-09-19T20:18:01.051Z,7.53
2018-09-19T20:20:36.517Z,11.47
2018-09-19T20:23:05.951Z,12.20
2018-09-19T20:25:35.523Z,9.30
2018-09-19T20:28:04.780Z,9.20
2018-09-19T20:30:33.936Z,6.93
2018-09-19T20:33:02.681Z,11.53
2018-09-19T20:35:31.648Z,7.33
2018-09-19T20:38:03.551Z,9.40
2018-09-19T20:40:32.274Z,13.67
2018-09-19T20:43:02.917Z,12.57
2018-09-19T20:45:32.584Z,7.23
2018-09-19T20:48:03.493Z,7.00
2018-09-19T20:50:32.668Z,7.20
2018-09-19T20:53:01.621Z,7.57
2018-09-19T20:55:30.489Z,10.30
2018-09-19T20:57:59.670Z,14.03
2018-09-19T21:00:28.766Z,7.97
2018-09-19T21:02:57.972Z,10.50
2018-09-19T21:05:27.004Z,9.43
2018-09-19T21:07:55.890Z,9.20
2018-09-19T21:10:24.810Z,9.17
2018-09-19T21:12:54.329Z,7.83
2018-09-19T21:15:23.501Z,9.10
2018-09-19T21:17:53.105Z,10.03
2018-09-19T21:20:23.464Z,10.10
2018-09-19T21:22:52.806Z,8.27
2018-09-19T21:25:21.752Z,9.80
2018-09-19T21:27:50.811Z,7.90
2018-09-19T21:30:19.815Z,8.57
2018-09-19T21:32:49.876Z,9.17
2018-09-19T21:35:19.114Z,12.17
2018-09-19T21:37:48.410Z,10.20
2018-09-19T21:40:17.902Z,11.23
2018-09-19T21:42:46.947Z,11.40
2018-09-19T21:45:16.048Z,12.83
2018-09-19T21:47:45.075Z,9.37
2018-09-19T21:50:15.309Z,7.53
2018-09-19T21:52:44.451Z,12.23
2018-09-19T21:55:13.469Z,8.27
2018-09-19T21:57:42.363Z,9.70
2018-09-19T22:00:13.003Z,8.80
2018-09-19T22:02:42.183Z,12.07
2018-09-19T22:05:13.745Z,8.70
2018-09-19T22:07:42.750Z,11.10
2018-09-19T22:10:13.221Z,12.97
2018-09-19T22:12:42.158Z,8.20
2018-09-19T22:15:11.204Z,9.37
2018-09-19T22:17:40.121Z,9.37
2018-09-19T22:20:09.122Z,7.87
2018-09-19T22:22:37.929Z,10.20
2018-09-19T22:25:09.053Z,9.57
2018-09-19T22:27:37.896Z,9.70
2018-09-19T22:30:06.842Z,9.90
2018-09-19T22:32:35.986Z,12.03
2018-09-19T22:35:05.873Z,10.53
2018-09-19T22:37:36.090Z,11.50
2018-09-19T22:40:05.643Z,10.83
2018-09-19T22:42:34.600Z,12.87
2018-09-19T22:45:04.689Z,8.87
2018-09-19T22:47:34.715Z,7.63
2018-09-19T22:50:04.509Z,10.43
2018-09-19T22:52:34.497Z,9.40
2018-09-19T22:55:03.589Z,10.03
2018-09-19T22:57:32.522Z,14.07
2018-09-19T23:00:01.384Z,10.17
2018-09-19T23:02:31.145Z,12.80
2018-09-19T23:04:59.994Z,10.67
2018-09-19T23:07:29.055Z,11.50
2018-09-19T23:09:57.903Z,8.93
2018-09-19T23:12:32.032Z,11.10
2018-09-19T23:15:01.052Z,12.13
2018-09-19T23:17:30.820Z,14.40
2018-09-19T23:19:59.800Z,12.13
2018-09-19T23:22:29.174Z,11.13
2018-09-19T23:24:58.080Z,13.03
2018-09-19T23:27:27.423Z,12.80
2018-09-19T23:29:56.258Z,11.83
2018-09-19T23:32:25.288Z,12.17
2018-09-19T23:34:55.315Z,11.60
2018-09-19T23:37:24.177Z,12.53
2018-09-19T23:39:53.031Z,11.90
2018-09-19T23:42:22.101Z,13.60
2018-09-19T23:44:51.003Z,10.70
2018-09-19T23:47:19.835Z,10.47
2018-09-19T23:49:49.327Z,10.20
2018-09-19T23:52:18.324Z,10.83
2018-09-19T23:54:47.598Z,11.10
2018-09-19T23:57:16.516Z,10.83
2018-09-19T23:59:46.126Z,12.60
